Ana Sayfa
METAR-TAF:

METAR-TAF

Havaalanları :

Varşova Chopin Havalimanı

Varşova, Polonya

Enlem: 52-10N, Boylam: 020-58E, yükseklik: 106 m

Güncel hava durumu gözlemi

Rapor saat 09:00 UTC de 14 dakika önce yapıldı.
Rüzgar kuzeydan 7 kt, kuzeybatı ve kuzey/kuzeydoğu arasında değişken
Sıcaklık 17°C
Nem 34%
Basınç 1029 hPa
Görüş mesafesi 10 km veya daha fazla
1500 m altında bulut yok ve kümülonimbus yok

METAR: EPWA 200900Z 35007KT 310V020 CAVOK 17/01 Q1029 NOSIG

Saat: 11:14 (09:14 UTC)

Tahmin

Rapor saat 08:30 UTC de 44 dakika önce yapıldı.
Ayın 20'si saat 09 UTC'den ayın 21'si saat 09 UTC'ye kadar geçerli Tahmin
Rüzgar kuzeydan 5 kt
Görüş mesafesi 10 km veya daha fazla
1500 m altında bulut yok ve kümülonimbus yok
Olasılık 40%
ayın 21'si saat 03 UTC'den ayın 21'si saat 06 UTC'ye kadar
1200 ft yükseklikte parçalı çok bulutlu

TAF: EPWA 200830Z 2009/2109 35005KT CAVOK PROB40 2103/2106 BKN012

4.000'den fazla havaalanı için hava durumu gözlemleri ve tahminleri (METAR ve TAF raporları).

Kullanılabilir istasyonlar harita üzerinde sarı ve kırmızı noktalarla gösterilir.

İstasyonun adını görmek için fareyi noktanın üzerinde gezdirin.

Sonrasında hava gözlem ve tahminlerini görmek için tıklayın.

Haritayı değiştirmek için: yaklaştırmak için siyah artı işaretli yeşil düğmeye ve uzaklaştırmak için de eksi işaretli düğmeye hızla tıklayın; bitişik haritalar için yeşil okları kullanın.


METAR-TAF: